sensor_id;sensor_type;location;lat;lon;timestamp;P1;durP1;ratioP1;P2;durP2;ratioP2
10078;SDS011;5078;42.544;22.966;2023-09-19T00:01:38;14.98;;;11.50;;
10078;SDS011;5078;42.544;22.966;2023-09-19T00:04:07;13.07;;;11.85;;
10078;SDS011;5078;42.544;22.966;2023-09-19T00:06:34;13.73;;;11.18;;
10078;SDS011;5078;42.544;22.966;2023-09-19T00:09:01;12.77;;;10.85;;
10078;SDS011;5078;42.544;22.966;2023-09-19T00:11:28;12.50;;;11.20;;
10078;SDS011;5078;42.544;22.966;2023-09-19T00:13:56;11.57;;;10.40;;
10078;SDS011;5078;42.544;22.966;2023-09-19T00:16:24;11.95;;;10.80;;
10078;SDS011;5078;42.544;22.966;2023-09-19T00:18:52;14.50;;;10.50;;
10078;SDS011;5078;42.544;22.966;2023-09-19T00:21:20;12.05;;;10.85;;
10078;SDS011;5078;42.544;22.966;2023-09-19T00:23:47;13.00;;;10.85;;
10078;SDS011;5078;42.544;22.966;2023-09-19T00:26:14;12.48;;;10.05;;
10078;SDS011;5078;42.544;22.966;2023-09-19T00:28:44;11.05;;;9.88;;
10078;SDS011;5078;42.544;22.966;2023-09-19T00:31:11;10.82;;;9.73;;
10078;SDS011;5078;42.544;22.966;2023-09-19T00:33:38;10.98;;;9.82;;
10078;SDS011;5078;42.544;22.966;2023-09-19T00:36:05;11.50;;;10.30;;
10078;SDS011;5078;42.544;22.966;2023-09-19T00:38:33;12.65;;;10.70;;
10078;SDS011;5078;42.544;22.966;2023-09-19T00:40:59;12.75;;;10.05;;
10078;SDS011;5078;42.544;22.966;2023-09-19T00:43:26;10.73;;;8.95;;
10078;SDS011;5078;42.544;22.966;2023-09-19T00:45:54;10.70;;;9.60;;
10078;SDS011;5078;42.544;22.966;2023-09-19T00:48:22;10.75;;;9.55;;
10078;SDS011;5078;42.544;22.966;2023-09-19T00:50:52;8.88;;;7.85;;
10078;SDS011;5078;42.544;22.966;2023-09-19T00:53:21;9.73;;;8.80;;
10078;SDS011;5078;42.544;22.966;2023-09-19T00:55:51;9.48;;;8.50;;
10078;SDS011;5078;42.544;22.966;2023-09-19T00:58:18;9.88;;;8.93;;
10078;SDS011;5078;42.544;22.966;2023-09-19T01:00:46;12.57;;;11.30;;
10078;SDS011;5078;42.544;22.966;2023-09-19T01:03:14;12.48;;;10.13;;
10078;SDS011;5078;42.544;22.966;2023-09-19T01:05:41;11.45;;;10.35;;
10078;SDS011;5078;42.544;22.966;2023-09-19T01:08:08;11.82;;;10.18;;
10078;SDS011;5078;42.544;22.966;2023-09-19T01:10:36;13.07;;;9.57;;
10078;SDS011;5078;42.544;22.966;2023-09-19T01:13:13;11.20;;;9.90;;
10078;SDS011;5078;42.544;22.966;2023-09-19T01:15:49;9.30;;;8.40;;
10078;SDS011;5078;42.544;22.966;2023-09-19T01:18:24;9.93;;;8.50;;
10078;SDS011;5078;42.544;22.966;2023-09-19T01:21:01;9.90;;;7.65;;
10078;SDS011;5078;42.544;22.966;2023-09-19T01:23:39;10.15;;;8.73;;
10078;SDS011;5078;42.544;22.966;2023-09-19T01:26:24;11.27;;;8.63;;
10078;SDS011;5078;42.544;22.966;2023-09-19T01:29:12;10.43;;;9.40;;
10078;SDS011;5078;42.544;22.966;2023-09-19T01:31:47;11.20;;;9.70;;
10078;SDS011;5078;42.544;22.966;2023-09-19T01:34:19;12.48;;;10.32;;
10078;SDS011;5078;42.544;22.966;2023-09-19T01:36:46;15.35;;;11.23;;
10078;SDS011;5078;42.544;22.966;2023-09-19T01:39:12;11.70;;;10.43;;
10078;SDS011;5078;42.544;22.966;2023-09-19T01:41:56;15.07;;;11.80;;
10078;SDS011;5078;42.544;22.966;2023-09-19T01:44:31;13.93;;;11.68;;
10078;SDS011;5078;42.544;22.966;2023-09-19T01:47:11;15.95;;;11.45;;
10078;SDS011;5078;42.544;22.966;2023-09-19T01:49:48;13.85;;;11.55;;
10078;SDS011;5078;42.544;22.966;2023-09-19T01:52:22;13.55;;;11.73;;
10078;SDS011;5078;42.544;22.966;2023-09-19T01:54:55;14.70;;;11.77;;
10078;SDS011;5078;42.544;22.966;2023-09-19T01:57:26;14.23;;;12.52;;
10078;SDS011;5078;42.544;22.966;2023-09-19T01:59:59;15.02;;;11.85;;
10078;SDS011;5078;42.544;22.966;2023-09-19T02:02:33;16.33;;;12.38;;
10078;SDS011;5078;42.544;22.966;2023-09-19T02:05:01;15.20;;;11.93;;
10078;SDS011;5078;42.544;22.966;2023-09-19T02:07:30;13.40;;;12.15;;
10078;SDS011;5078;42.544;22.966;2023-09-19T02:09:57;13.02;;;11.60;;
10078;SDS011;5078;42.544;22.966;2023-09-19T02:12:25;13.68;;;11.95;;
10078;SDS011;5078;42.544;22.966;2023-09-19T02:14:51;12.25;;;11.05;;
10078;SDS011;5078;42.544;22.966;2023-09-19T02:17:18;12.65;;;11.35;;
10078;SDS011;5078;42.544;22.966;2023-09-19T02:19:46;13.52;;;11.23;;
10078;SDS011;5078;42.544;22.966;2023-09-19T02:22:13;11.95;;;10.75;;
10078;SDS011;5078;42.544;22.966;2023-09-19T02:24:41;11.75;;;10.38;;
10078;SDS011;5078;42.544;22.966;2023-09-19T02:27:08;11.38;;;10.20;;
10078;SDS011;5078;42.544;22.966;2023-09-19T02:29:37;22.95;;;11.75;;
10078;SDS011;5078;42.544;22.966;2023-09-19T02:32:04;15.43;;;11.35;;
10078;SDS011;5078;42.544;22.966;2023-09-19T02:34:31;12.43;;;11.18;;
10078;SDS011;5078;42.544;22.966;2023-09-19T02:37:02;12.07;;;10.80;;
10078;SDS011;5078;42.544;22.966;2023-09-19T02:39:30;12.20;;;10.93;;
10078;SDS011;5078;42.544;22.966;2023-09-19T02:41:56;12.13;;;10.93;;
10078;SDS011;5078;42.544;22.966;2023-09-19T02:44:23;14.18;;;11.65;;
10078;SDS011;5078;42.544;22.966;2023-09-19T02:46:50;14.10;;;11.38;;
10078;SDS011;5078;42.544;22.966;2023-09-19T02:49:17;14.77;;;11.90;;
10078;SDS011;5078;42.544;22.966;2023-09-19T02:51:44;15.18;;;11.73;;
10078;SDS011;5078;42.544;22.966;2023-09-19T02:54:14;12.85;;;11.55;;
10078;SDS011;5078;42.544;22.966;2023-09-19T02:56:41;16.10;;;12.70;;
10078;SDS011;5078;42.544;22.966;2023-09-19T02:59:07;14.02;;;12.57;;
10078;SDS011;5078;42.544;22.966;2023-09-19T03:01:35;13.50;;;12.20;;
10078;SDS011;5078;42.544;22.966;2023-09-19T03:04:03;14.13;;;12.73;;
10078;SDS011;5078;42.544;22.966;2023-09-19T03:06:32;15.77;;;12.88;;
10078;SDS011;5078;42.544;22.966;2023-09-19T03:08:58;12.90;;;11.60;;
10078;SDS011;5078;42.544;22.966;2023-09-19T03:11:26;14.80;;;12.25;;
10078;SDS011;5078;42.544;22.966;2023-09-19T03:13:53;14.77;;;10.98;;
10078;SDS011;5078;42.544;22.966;2023-09-19T03:16:20;14.13;;;11.35;;
10078;SDS011;5078;42.544;22.966;2023-09-19T03:18:48;13.48;;;12.05;;
10078;SDS011;5078;42.544;22.966;2023-09-19T03:21:15;15.63;;;12.55;;
10078;SDS011;5078;42.544;22.966;2023-09-19T03:23:42;13.98;;;11.93;;
10078;SDS011;5078;42.544;22.966;2023-09-19T03:26:10;17.08;;;12.13;;
10078;SDS011;5078;42.544;22.966;2023-09-19T03:28:38;14.45;;;12.20;;
10078;SDS011;5078;42.544;22.966;2023-09-19T03:31:06;13.90;;;11.88;;
10078;SDS011;5078;42.544;22.966;2023-09-19T03:33:33;16.10;;;11.93;;
10078;SDS011;5078;42.544;22.966;2023-09-19T03:35:59;12.65;;;11.35;;
10078;SDS011;5078;42.544;22.966;2023-09-19T03:38:29;14.88;;;11.90;;
10078;SDS011;5078;42.544;22.966;2023-09-19T03:40:57;15.10;;;12.48;;
10078;SDS011;5078;42.544;22.966;2023-09-19T03:43:24;14.10;;;12.70;;
10078;SDS011;5078;42.544;22.966;2023-09-19T03:45:52;15.00;;;12.23;;
10078;SDS011;5078;42.544;22.966;2023-09-19T03:48:19;14.73;;;12.60;;
10078;SDS011;5078;42.544;22.966;2023-09-19T03:50:46;12.65;;;11.35;;
10078;SDS011;5078;42.544;22.966;2023-09-19T03:53:13;13.55;;;11.30;;
10078;SDS011;5078;42.544;22.966;2023-09-19T03:55:40;13.85;;;12.48;;
10078;SDS011;5078;42.544;22.966;2023-09-19T03:58:06;15.45;;;12.05;;
10078;SDS011;5078;42.544;22.966;2023-09-19T04:00:33;12.65;;;11.05;;
10078;SDS011;5078;42.544;22.966;2023-09-19T04:03:01;16.98;;;13.00;;
10078;SDS011;5078;42.544;22.966;2023-09-19T04:05:31;18.13;;;12.05;;
10078;SDS011;5078;42.544;22.966;2023-09-19T04:07:58;13.80;;;12.38;;
10078;SDS011;5078;42.544;22.966;2023-09-19T04:10:25;14.05;;;11.80;;
10078;SDS011;5078;42.544;22.966;2023-09-19T04:12:52;13.00;;;11.70;;
10078;SDS011;5078;42.544;22.966;2023-09-19T04:15:19;16.98;;;14.38;;
10078;SDS011;5078;42.544;22.966;2023-09-19T04:17:47;19.05;;;17.08;;
10078;SDS011;5078;42.544;22.966;2023-09-19T04:20:15;15.75;;;14.15;;
10078;SDS011;5078;42.544;22.966;2023-09-19T04:22:43;15.27;;;12.32;;
10078;SDS011;5078;42.544;22.966;2023-09-19T04:25:09;17.40;;;13.90;;
10078;SDS011;5078;42.544;22.966;2023-09-19T04:27:36;15.82;;;13.15;;
10078;SDS011;5078;42.544;22.966;2023-09-19T04:30:03;14.45;;;12.95;;
10078;SDS011;5078;42.544;22.966;2023-09-19T04:32:35;24.58;;;13.68;;
10078;SDS011;5078;42.544;22.966;2023-09-19T04:35:04;22.20;;;14.50;;
10078;SDS011;5078;42.544;22.966;2023-09-19T04:37:36;17.92;;;13.82;;
10078;SDS011;5078;42.544;22.966;2023-09-19T04:40:04;20.15;;;14.50;;
10078;SDS011;5078;42.544;22.966;2023-09-19T04:42:37;15.70;;;14.10;;
10078;SDS011;5078;42.544;22.966;2023-09-19T04:45:05;17.55;;;14.57;;
10078;SDS011;5078;42.544;22.966;2023-09-19T04:47:33;16.63;;;15.05;;
10078;SDS011;5078;42.544;22.966;2023-09-19T04:49:59;22.00;;;14.20;;
10078;SDS011;5078;42.544;22.966;2023-09-19T04:52:26;18.88;;;13.68;;
10078;SDS011;5078;42.544;22.966;2023-09-19T04:54:54;15.23;;;13.40;;
10078;SDS011;5078;42.544;22.966;2023-09-19T04:57:21;15.40;;;13.45;;
10078;SDS011;5078;42.544;22.966;2023-09-19T04:59:47;13.98;;;12.63;;
10078;SDS011;5078;42.544;22.966;2023-09-19T05:02:15;13.93;;;12.52;;
10078;SDS011;5078;42.544;22.966;2023-09-19T05:04:42;15.32;;;12.60;;
10078;SDS011;5078;42.544;22.966;2023-09-19T05:07:09;12.98;;;11.68;;
10078;SDS011;5078;42.544;22.966;2023-09-19T05:09:36;11.05;;;9.80;;
10078;SDS011;5078;42.544;22.966;2023-09-19T05:12:05;10.75;;;9.70;;
10078;SDS011;5078;42.544;22.966;2023-09-19T05:14:32;12.18;;;10.98;;
10078;SDS011;5078;42.544;22.966;2023-09-19T05:16:58;11.45;;;10.35;;
10078;SDS011;5078;42.544;22.966;2023-09-19T05:19:25;11.98;;;10.77;;
10078;SDS011;5078;42.544;22.966;2023-09-19T05:21:52;14.10;;;11.75;;
10078;SDS011;5078;42.544;22.966;2023-09-19T05:24:20;12.50;;;11.23;;
10078;SDS011;5078;42.544;22.966;2023-09-19T05:26:48;15.75;;;12.60;;
10078;SDS011;5078;42.544;22.966;2023-09-19T05:29:16;15.15;;;12.57;;
10078;SDS011;5078;42.544;22.966;2023-09-19T05:31:43;14.75;;;11.25;;
10078;SDS011;5078;42.544;22.966;2023-09-19T05:34:10;13.32;;;11.65;;
10078;SDS011;5078;42.544;22.966;2023-09-19T05:36:37;12.82;;;11.45;;
10078;SDS011;5078;42.544;22.966;2023-09-19T05:39:04;15.05;;;11.35;;
10078;SDS011;5078;42.544;22.966;2023-09-19T05:41:34;15.15;;;12.48;;
10078;SDS011;5078;42.544;22.966;2023-09-19T05:44:01;19.42;;;14.20;;
10078;SDS011;5078;42.544;22.966;2023-09-19T05:46:30;24.77;;;14.07;;
10078;SDS011;5078;42.544;22.966;2023-09-19T05:48:56;18.55;;;15.15;;
10078;SDS011;5078;42.544;22.966;2023-09-19T05:51:23;15.20;;;13.60;;
10078;SDS011;5078;42.544;22.966;2023-09-19T05:53:54;16.02;;;13.68;;
10078;SDS011;5078;42.544;22.966;2023-09-19T05:56:21;15.52;;;12.40;;
10078;SDS011;5078;42.544;22.966;2023-09-19T05:58:47;26.27;;;14.95;;
10078;SDS011;5078;42.544;22.966;2023-09-19T06:01:16;15.60;;;13.95;;
10078;SDS011;5078;42.544;22.966;2023-09-19T06:03:45;16.17;;;12.85;;
10078;SDS011;5078;42.544;22.966;2023-09-19T06:06:11;15.55;;;13.15;;
10078;SDS011;5078;42.544;22.966;2023-09-19T06:08:38;15.88;;;13.88;;
10078;SDS011;5078;42.544;22.966;2023-09-19T06:11:05;13.88;;;12.48;;
10078;SDS011;5078;42.544;22.966;2023-09-19T06:13:34;14.13;;;12.73;;
10078;SDS011;5078;42.544;22.966;2023-09-19T06:16:01;18.73;;;12.68;;
10078;SDS011;5078;42.544;22.966;2023-09-19T06:18:30;18.85;;;14.77;;
10078;SDS011;5078;42.544;22.966;2023-09-19T06:21:00;16.40;;;14.23;;
10078;SDS011;5078;42.544;22.966;2023-09-19T06:23:30;14.95;;;12.43;;
10078;SDS011;5078;42.544;22.966;2023-09-19T06:25:57;14.55;;;12.95;;
10078;SDS011;5078;42.544;22.966;2023-09-19T06:28:23;15.07;;;11.80;;
10078;SDS011;5078;42.544;22.966;2023-09-19T06:30:53;14.18;;;11.77;;
10078;SDS011;5078;42.544;22.966;2023-09-19T06:33:20;13.90;;;11.90;;
10078;SDS011;5078;42.544;22.966;2023-09-19T06:35:47;13.68;;;11.93;;
10078;SDS011;5078;42.544;22.966;2023-09-19T06:38:15;12.45;;;11.15;;
10078;SDS011;5078;42.544;22.966;2023-09-19T06:40:44;17.55;;;11.45;;
10078;SDS011;5078;42.544;22.966;2023-09-19T06:43:11;13.52;;;11.27;;
10078;SDS011;5078;42.544;22.966;2023-09-19T06:45:37;11.90;;;10.73;;
10078;SDS011;5078;42.544;22.966;2023-09-19T06:48:05;13.93;;;11.55;;
10078;SDS011;5078;42.544;22.966;2023-09-19T06:50:32;13.23;;;10.48;;
10078;SDS011;5078;42.544;22.966;2023-09-19T06:52:59;13.73;;;10.70;;
10078;SDS011;5078;42.544;22.966;2023-09-19T06:55:29;11.55;;;10.40;;
10078;SDS011;5078;42.544;22.966;2023-09-19T06:57:56;12.55;;;11.25;;
10078;SDS011;5078;42.544;22.966;2023-09-19T07:00:23;12.52;;;10.68;;
10078;SDS011;5078;42.544;22.966;2023-09-19T07:02:57;13.38;;;11.95;;
10078;SDS011;5078;42.544;22.966;2023-09-19T07:05:26;11.68;;;10.45;;
10078;SDS011;5078;42.544;22.966;2023-09-19T07:07:54;11.68;;;10.60;;
10078;SDS011;5078;42.544;22.966;2023-09-19T07:10:21;12.70;;;10.20;;
10078;SDS011;5078;42.544;22.966;2023-09-19T07:12:54;11.68;;;9.95;;
10078;SDS011;5078;42.544;22.966;2023-09-19T07:15:22;12.95;;;11.55;;
10078;SDS011;5078;42.544;22.966;2023-09-19T07:17:50;14.30;;;10.95;;
10078;SDS011;5078;42.544;22.966;2023-09-19T07:20:18;14.05;;;10.98;;
10078;SDS011;5078;42.544;22.966;2023-09-19T07:22:44;15.02;;;11.38;;
10078;SDS011;5078;42.544;22.966;2023-09-19T07:25:12;12.88;;;10.73;;
10078;SDS011;5078;42.544;22.966;2023-09-19T07:27:40;11.80;;;9.57;;
10078;SDS011;5078;42.544;22.966;2023-09-19T07:30:08;12.35;;;10.15;;
10078;SDS011;5078;42.544;22.966;2023-09-19T07:32:36;11.02;;;9.90;;
10078;SDS011;5078;42.544;22.966;2023-09-19T07:35:04;11.57;;;9.90;;
10078;SDS011;5078;42.544;22.966;2023-09-19T07:37:31;14.55;;;10.20;;
10078;SDS011;5078;42.544;22.966;2023-09-19T07:39:58;14.07;;;10.32;;
10078;SDS011;5078;42.544;22.966;2023-09-19T07:42:26;13.25;;;10.80;;
10078;SDS011;5078;42.544;22.966;2023-09-19T07:44:52;14.57;;;10.63;;
10078;SDS011;5078;42.544;22.966;2023-09-19T07:47:20;16.15;;;10.70;;
10078;SDS011;5078;42.544;22.966;2023-09-19T07:49:47;16.13;;;9.60;;
10078;SDS011;5078;42.544;22.966;2023-09-19T07:52:14;12.57;;;9.13;;
10078;SDS011;5078;42.544;22.966;2023-09-19T07:54:41;13.13;;;9.52;;
10078;SDS011;5078;42.544;22.966;2023-09-19T07:57:09;20.63;;;11.40;;
10078;SDS011;5078;42.544;22.966;2023-09-19T07:59:36;10.32;;;9.27;;
10078;SDS011;5078;42.544;22.966;2023-09-19T08:02:03;12.95;;;9.70;;
10078;SDS011;5078;42.544;22.966;2023-09-19T08:04:32;10.98;;;9.93;;
10078;SDS011;5078;42.544;22.966;2023-09-19T08:06:59;15.77;;;9.80;;
10078;SDS011;5078;42.544;22.966;2023-09-19T08:09:28;11.18;;;9.63;;
10078;SDS011;5078;42.544;22.966;2023-09-19T08:11:58;11.10;;;9.65;;
10078;SDS011;5078;42.544;22.966;2023-09-19T08:14:28;11.35;;;9.57;;
10078;SDS011;5078;42.544;22.966;2023-09-19T08:16:56;10.85;;;9.10;;
10078;SDS011;5078;42.544;22.966;2023-09-19T08:19:23;11.00;;;9.77;;
10078;SDS011;5078;42.544;22.966;2023-09-19T08:21:54;22.48;;;10.32;;
10078;SDS011;5078;42.544;22.966;2023-09-19T08:24:23;11.15;;;9.38;;
10078;SDS011;5078;42.544;22.966;2023-09-19T08:26:52;10.50;;;9.25;;
10078;SDS011;5078;42.544;22.966;2023-09-19T08:29:19;9.77;;;8.85;;
10078;SDS011;5078;42.544;22.966;2023-09-19T08:31:46;12.13;;;9.60;;
10078;SDS011;5078;42.544;22.966;2023-09-19T08:34:14;11.73;;;10.07;;
10078;SDS011;5078;42.544;22.966;2023-09-19T08:36:41;12.60;;;10.23;;
10078;SDS011;5078;42.544;22.966;2023-09-19T08:39:11;13.73;;;10.30;;
10078;SDS011;5078;42.544;22.966;2023-09-19T08:41:39;12.35;;;9.07;;
10078;SDS011;5078;42.544;22.966;2023-09-19T08:44:05;10.27;;;9.23;;
10078;SDS011;5078;42.544;22.966;2023-09-19T08:46:33;12.65;;;9.63;;
10078;SDS011;5078;42.544;22.966;2023-09-19T08:49:03;9.70;;;8.70;;
10078;SDS011;5078;42.544;22.966;2023-09-19T08:51:33;10.90;;;9.32;;
10078;SDS011;5078;42.544;22.966;2023-09-19T08:54:09;11.35;;;8.75;;
10078;SDS011;5078;42.544;22.966;2023-09-19T08:56:48;9.75;;;8.77;;
10078;SDS011;5078;42.544;22.966;2023-09-19T08:59:17;10.52;;;9.23;;
10078;SDS011;5078;42.544;22.966;2023-09-19T09:01:50;10.20;;;8.75;;
10078;SDS011;5078;42.544;22.966;2023-09-19T09:04:19;10.15;;;9.15;;
10078;SDS011;5078;42.544;22.966;2023-09-19T09:06:46;11.20;;;9.55;;
10078;SDS011;5078;42.544;22.966;2023-09-19T09:09:19;10.13;;;9.23;;
10078;SDS011;5078;42.544;22.966;2023-09-19T09:11:47;10.77;;;9.05;;
10078;SDS011;5078;42.544;22.966;2023-09-19T09:14:15;11.07;;;8.75;;
10078;SDS011;5078;42.544;22.966;2023-09-19T09:16:42;9.85;;;8.88;;
10078;SDS011;5078;42.544;22.966;2023-09-19T09:19:10;8.98;;;8.18;;
10078;SDS011;5078;42.544;22.966;2023-09-19T09:21:39;9.48;;;8.32;;
10078;SDS011;5078;42.544;22.966;2023-09-19T09:26:59;9.80;;;8.77;;
10078;SDS011;5078;42.544;22.966;2023-09-19T09:32:20;10.13;;;8.98;;
10078;SDS011;5078;42.544;22.966;2023-09-19T09:34:49;11.35;;;8.55;;
10078;SDS011;5078;42.544;22.966;2023-09-19T09:37:17;10.98;;;8.43;;
10078;SDS011;5078;42.544;22.966;2023-09-19T09:39:53;9.10;;;8.05;;
10078;SDS011;5078;42.544;22.966;2023-09-19T09:42:29;11.05;;;9.95;;
10078;SDS011;5078;42.544;22.966;2023-09-19T09:45:12;9.85;;;8.10;;
10078;SDS011;5078;42.544;22.966;2023-09-19T09:47:43;8.98;;;8.00;;
10078;SDS011;5078;42.544;22.966;2023-09-19T09:50:26;9.10;;;8.23;;
10078;SDS011;5078;42.544;22.966;2023-09-19T09:53:21;9.32;;;8.30;;
10078;SDS011;5078;42.544;22.966;2023-09-19T09:55:58;8.57;;;7.70;;
10078;SDS011;5078;42.544;22.966;2023-09-19T09:58:26;10.95;;;8.82;;
10078;SDS011;5078;42.544;22.966;2023-09-19T10:00:55;8.80;;;7.80;;
10078;SDS011;5078;42.544;22.966;2023-09-19T10:03:30;8.68;;;7.78;;
10078;SDS011;5078;42.544;22.966;2023-09-19T10:05:59;8.75;;;7.95;;
10078;SDS011;5078;42.544;22.966;2023-09-19T10:08:28;10.00;;;8.93;;
10078;SDS011;5078;42.544;22.966;2023-09-19T10:10:56;9.00;;;8.20;;
10078;SDS011;5078;42.544;22.966;2023-09-19T10:13:31;8.55;;;7.80;;
10078;SDS011;5078;42.544;22.966;2023-09-19T10:16:04;8.80;;;7.90;;
10078;SDS011;5078;42.544;22.966;2023-09-19T10:18:36;9.80;;;8.23;;
10078;SDS011;5078;42.544;22.966;2023-09-19T10:21:04;9.73;;;7.85;;
10078;SDS011;5078;42.544;22.966;2023-09-19T10:23:32;9.35;;;8.35;;
10078;SDS011;5078;42.544;22.966;2023-09-19T10:26:01;9.70;;;8.70;;
10078;SDS011;5078;42.544;22.966;2023-09-19T10:28:32;9.07;;;8.25;;
10078;SDS011;5078;42.544;22.966;2023-09-19T10:31:00;8.73;;;7.93;;
10078;SDS011;5078;42.544;22.966;2023-09-19T10:33:29;10.00;;;9.10;;
10078;SDS011;5078;42.544;22.966;2023-09-19T10:36:02;9.73;;;8.68;;
10078;SDS011;5078;42.544;22.966;2023-09-19T10:38:31;9.05;;;8.20;;
10078;SDS011;5078;42.544;22.966;2023-09-19T10:41:01;10.00;;;9.07;;
10078;SDS011;5078;42.544;22.966;2023-09-19T10:43:29;9.00;;;8.20;;
10078;SDS011;5078;42.544;22.966;2023-09-19T10:46:00;9.07;;;8.20;;
10078;SDS011;5078;42.544;22.966;2023-09-19T10:48:29;9.60;;;8.65;;
10078;SDS011;5078;42.544;22.966;2023-09-19T10:50:58;9.18;;;8.25;;
10078;SDS011;5078;42.544;22.966;2023-09-19T10:53:32;9.38;;;8.52;;
10078;SDS011;5078;42.544;22.966;2023-09-19T10:56:09;9.65;;;8.68;;
10078;SDS011;5078;42.544;22.966;2023-09-19T10:58:42;9.20;;;8.40;;
10078;SDS011;5078;42.544;22.966;2023-09-19T11:01:11;8.95;;;8.15;;
10078;SDS011;5078;42.544;22.966;2023-09-19T11:03:39;9.00;;;8.30;;
10078;SDS011;5078;42.544;22.966;2023-09-19T11:06:09;9.40;;;8.38;;
10078;SDS011;5078;42.544;22.966;2023-09-19T11:08:58;9.65;;;8.75;;
10078;SDS011;5078;42.544;22.966;2023-09-19T11:11:48;9.30;;;8.40;;
10078;SDS011;5078;42.544;22.966;2023-09-19T11:14:30;9.75;;;8.75;;
10078;SDS011;5078;42.544;22.966;2023-09-19T11:17:31;9.30;;;8.43;;
10078;SDS011;5078;42.544;22.966;2023-09-19T11:23:19;9.13;;;8.32;;
10078;SDS011;5078;42.544;22.966;2023-09-19T11:25:49;8.57;;;7.78;;
10078;SDS011;5078;42.544;22.966;2023-09-19T11:28:31;10.13;;;8.85;;
10078;SDS011;5078;42.544;22.966;2023-09-19T11:40:34;9.85;;;8.88;;
10078;SDS011;5078;42.544;22.966;2023-09-19T11:46:06;11.85;;;8.65;;
10078;SDS011;5078;42.544;22.966;2023-09-19T11:48:33;9.70;;;8.43;;
10078;SDS011;5078;42.544;22.966;2023-09-19T11:51:10;9.90;;;8.98;;
10078;SDS011;5078;42.544;22.966;2023-09-19T11:53:44;10.73;;;8.73;;
10078;SDS011;5078;42.544;22.966;2023-09-19T11:56:13;10.65;;;9.55;;
10078;SDS011;5078;42.544;22.966;2023-09-19T11:58:42;10.25;;;8.50;;
10078;SDS011;5078;42.544;22.966;2023-09-19T12:01:10;9.90;;;9.10;;
10078;SDS011;5078;42.544;22.966;2023-09-19T12:03:46;10.32;;;8.77;;
10078;SDS011;5078;42.544;22.966;2023-09-19T12:06:16;10.40;;;9.35;;
10078;SDS011;5078;42.544;22.966;2023-09-19T12:08:43;9.77;;;8.63;;
10078;SDS011;5078;42.544;22.966;2023-09-19T12:11:12;10.68;;;9.05;;
10078;SDS011;5078;42.544;22.966;2023-09-19T12:13:41;10.18;;;9.05;;
10078;SDS011;5078;42.544;22.966;2023-09-19T12:16:14;9.82;;;8.93;;
10078;SDS011;5078;42.544;22.966;2023-09-19T12:18:41;11.25;;;8.57;;
10078;SDS011;5078;42.544;22.966;2023-09-19T12:21:22;10.32;;;9.27;;
10078;SDS011;5078;42.544;22.966;2023-09-19T12:24:06;9.55;;;8.55;;
10078;SDS011;5078;42.544;22.966;2023-09-19T12:26:41;9.85;;;8.85;;
10078;SDS011;5078;42.544;22.966;2023-09-19T12:29:13;10.55;;;9.05;;
10078;SDS011;5078;42.544;22.966;2023-09-19T12:31:49;9.50;;;8.60;;
10078;SDS011;5078;42.544;22.966;2023-09-19T12:34:23;8.50;;;7.70;;
10078;SDS011;5078;42.544;22.966;2023-09-19T12:37:06;13.27;;;9.00;;
10078;SDS011;5078;42.544;22.966;2023-09-19T12:39:40;10.43;;;8.57;;
10078;SDS011;5078;42.544;22.966;2023-09-19T12:42:14;8.73;;;7.97;;
10078;SDS011;5078;42.544;22.966;2023-09-19T12:44:43;9.90;;;8.90;;
10078;SDS011;5078;42.544;22.966;2023-09-19T12:47:11;10.18;;;8.75;;
10078;SDS011;5078;42.544;22.966;2023-09-19T12:52:41;9.70;;;8.70;;
10078;SDS011;5078;42.544;22.966;2023-09-19T12:55:19;10.25;;;9.13;;
10078;SDS011;5078;42.544;22.966;2023-09-19T13:00:40;11.70;;;8.93;;
10078;SDS011;5078;42.544;22.966;2023-09-19T13:03:14;10.63;;;9.32;;
10078;SDS011;5078;42.544;22.966;2023-09-19T13:05:50;10.85;;;9.05;;
10078;SDS011;5078;42.544;22.966;2023-09-19T13:08:23;8.98;;;8.18;;
10078;SDS011;5078;42.544;22.966;2023-09-19T13:11:07;9.88;;;8.88;;
10078;SDS011;5078;42.544;22.966;2023-09-19T13:13:38;9.00;;;8.13;;
10078;SDS011;5078;42.544;22.966;2023-09-19T13:16:06;9.60;;;8.70;;
10078;SDS011;5078;42.544;22.966;2023-09-19T13:18:43;10.73;;;9.20;;
10078;SDS011;5078;42.544;22.966;2023-09-19T13:21:12;10.15;;;8.77;;
10078;SDS011;5078;42.544;22.966;2023-09-19T13:23:48;11.23;;;9.38;;
10078;SDS011;5078;42.544;22.966;2023-09-19T13:26:16;9.02;;;8.23;;
10078;SDS011;5078;42.544;22.966;2023-09-19T13:28:43;9.27;;;8.48;;
10078;SDS011;5078;42.544;22.966;2023-09-19T13:31:10;8.40;;;7.65;;
10078;SDS011;5078;42.544;22.966;2023-09-19T13:33:42;8.63;;;7.90;;
10078;SDS011;5078;42.544;22.966;2023-09-19T13:36:09;9.00;;;8.10;;
10078;SDS011;5078;42.544;22.966;2023-09-19T13:38:37;8.98;;;7.93;;
10078;SDS011;5078;42.544;22.966;2023-09-19T13:41:05;10.65;;;9.63;;
10078;SDS011;5078;42.544;22.966;2023-09-19T13:43:32;9.57;;;8.13;;
10078;SDS011;5078;42.544;22.966;2023-09-19T13:45:58;9.40;;;8.60;;
10078;SDS011;5078;42.544;22.966;2023-09-19T13:48:26;9.10;;;8.20;;
10078;SDS011;5078;42.544;22.966;2023-09-19T13:50:55;10.20;;;7.82;;
10078;SDS011;5078;42.544;22.966;2023-09-19T13:53:22;10.88;;;9.88;;
10078;SDS011;5078;42.544;22.966;2023-09-19T13:55:48;9.10;;;8.30;;
10078;SDS011;5078;42.544;22.966;2023-09-19T13:58:16;9.50;;;8.60;;
10078;SDS011;5078;42.544;22.966;2023-09-19T14:00:43;10.85;;;9.73;;
10078;SDS011;5078;42.544;22.966;2023-09-19T14:03:10;9.32;;;8.30;;
10078;SDS011;5078;42.544;22.966;2023-09-19T14:05:37;9.18;;;8.38;;
10078;SDS011;5078;42.544;22.966;2023-09-19T14:08:04;8.68;;;7.75;;
10078;SDS011;5078;42.544;22.966;2023-09-19T14:10:31;8.55;;;7.70;;
10078;SDS011;5078;42.544;22.966;2023-09-19T14:12:58;11.68;;;8.00;;
10078;SDS011;5078;42.544;22.966;2023-09-19T14:15:26;9.15;;;8.25;;
10078;SDS011;5078;42.544;22.966;2023-09-19T14:17:56;8.65;;;7.82;;
10078;SDS011;5078;42.544;22.966;2023-09-19T14:20:24;8.90;;;8.13;;
10078;SDS011;5078;42.544;22.966;2023-09-19T14:22:51;10.02;;;7.95;;
10078;SDS011;5078;42.544;22.966;2023-09-19T14:25:18;9.48;;;8.45;;
10078;SDS011;5078;42.544;22.966;2023-09-19T14:27:46;9.45;;;8.55;;
10078;SDS011;5078;42.544;22.966;2023-09-19T14:30:13;12.77;;;8.82;;
10078;SDS011;5078;42.544;22.966;2023-09-19T14:32:42;8.15;;;7.45;;
10078;SDS011;5078;42.544;22.966;2023-09-19T14:35:09;11.57;;;10.40;;
10078;SDS011;5078;42.544;22.966;2023-09-19T14:37:36;10.20;;;8.77;;
10078;SDS011;5078;42.544;22.966;2023-09-19T14:40:05;9.68;;;8.75;;
10078;SDS011;5078;42.544;22.966;2023-09-19T14:42:34;9.93;;;8.93;;
10078;SDS011;5078;42.544;22.966;2023-09-19T14:45:03;8.43;;;7.63;;
10078;SDS011;5078;42.544;22.966;2023-09-19T14:47:31;9.80;;;8.82;;
10078;SDS011;5078;42.544;22.966;2023-09-19T14:50:00;12.07;;;9.82;;
10078;SDS011;5078;42.544;22.966;2023-09-19T14:52:31;9.55;;;8.65;;
10078;SDS011;5078;42.544;22.966;2023-09-19T14:54:59;14.55;;;13.02;;
10078;SDS011;5078;42.544;22.966;2023-09-19T14:57:25;10.50;;;9.50;;
10078;SDS011;5078;42.544;22.966;2023-09-19T14:59:52;9.20;;;8.25;;
10078;SDS011;5078;42.544;22.966;2023-09-19T15:02:19;9.77;;;8.43;;
10078;SDS011;5078;42.544;22.966;2023-09-19T15:04:46;10.43;;;9.43;;
10078;SDS011;5078;42.544;22.966;2023-09-19T15:07:14;12.05;;;9.90;;
10078;SDS011;5078;42.544;22.966;2023-09-19T15:09:41;9.15;;;8.38;;
10078;SDS011;5078;42.544;22.966;2023-09-19T15:12:08;9.88;;;7.68;;